sensor_id;sensor_type;location;lat;lon;timestamp;temperature;humidity
18888;DHT22;9576;47.792;9.628;2024-01-15T00:00:34;0.70;99.90
18888;DHT22;9576;47.792;9.628;2024-01-15T00:03:36;0.80;99.90
18888;DHT22;9576;47.792;9.628;2024-01-15T00:06:38;0.80;99.90
18888;DHT22;9576;47.792;9.628;2024-01-15T00:09:40;0.80;99.90
18888;DHT22;9576;47.792;9.628;2024-01-15T00:12:43;0.80;99.90
18888;DHT22;9576;47.792;9.628;2024-01-15T00:15:44;0.80;99.90
18888;DHT22;9576;47.792;9.628;2024-01-15T00:18:46;0.80;99.90
18888;DHT22;9576;47.792;9.628;2024-01-15T00:21:48;0.80;99.90
18888;DHT22;9576;47.792;9.628;2024-01-15T00:24:49;0.80;99.90
18888;DHT22;9576;47.792;9.628;2024-01-15T00:27:52;0.80;99.90
18888;DHT22;9576;47.792;9.628;2024-01-15T00:30:54;0.80;99.90
18888;DHT22;9576;47.792;9.628;2024-01-15T00:33:56;0.80;99.90
18888;DHT22;9576;47.792;9.628;2024-01-15T00:36:57;0.80;99.90
18888;DHT22;9576;47.792;9.628;2024-01-15T00:39:59;0.80;99.90
18888;DHT22;9576;47.792;9.628;2024-01-15T00:43:02;0.70;99.90
18888;DHT22;9576;47.792;9.628;2024-01-15T00:46:04;0.70;99.90
18888;DHT22;9576;47.792;9.628;2024-01-15T00:49:06;0.80;99.90
18888;DHT22;9576;47.792;9.628;2024-01-15T00:52:08;0.80;99.90
18888;DHT22;9576;47.792;9.628;2024-01-15T00:55:09;0.90;99.90
18888;DHT22;9576;47.792;9.628;2024-01-15T00:58:12;0.80;99.90
18888;DHT22;9576;47.792;9.628;2024-01-15T01:01:14;0.80;99.90
18888;DHT22;9576;47.792;9.628;2024-01-15T01:04:16;0.90;99.90
18888;DHT22;9576;47.792;9.628;2024-01-15T01:07:17;0.90;99.90
18888;DHT22;9576;47.792;9.628;2024-01-15T01:10:19;0.90;99.90
18888;DHT22;9576;47.792;9.628;2024-01-15T01:13:22;0.90;99.90
18888;DHT22;9576;47.792;9.628;2024-01-15T01:16:24;0.90;99.90
18888;DHT22;9576;47.792;9.628;2024-01-15T01:19:26;1.00;99.90
18888;DHT22;9576;47.792;9.628;2024-01-15T01:22:27;0.90;99.90
18888;DHT22;9576;47.792;9.628;2024-01-15T01:25:29;1.00;99.90
18888;DHT22;9576;47.792;9.628;2024-01-15T01:28:32;1.00;99.90
18888;DHT22;9576;47.792;9.628;2024-01-15T01:31:34;1.10;99.90
18888;DHT22;9576;47.792;9.628;2024-01-15T01:34:39;1.10;99.90
18888;DHT22;9576;47.792;9.628;2024-01-15T01:37:41;1.10;99.90
18888;DHT22;9576;47.792;9.628;2024-01-15T01:40:43;1.10;99.90
18888;DHT22;9576;47.792;9.628;2024-01-15T01:43:46;1.10;99.90
18888;DHT22;9576;47.792;9.628;2024-01-15T01:46:48;1.10;99.90
18888;DHT22;9576;47.792;9.628;2024-01-15T01:49:49;1.10;99.90
18888;DHT22;9576;47.792;9.628;2024-01-15T01:52:51;1.10;99.90
18888;DHT22;9576;47.792;9.628;2024-01-15T01:55:53;1.00;99.90
18888;DHT22;9576;47.792;9.628;2024-01-15T01:58:57;0.90;99.90
18888;DHT22;9576;47.792;9.628;2024-01-15T02:01:58;0.90;99.90
18888;DHT22;9576;47.792;9.628;2024-01-15T02:05:03;0.80;99.90
18888;DHT22;9576;47.792;9.628;2024-01-15T02:08:05;0.60;99.90
18888;DHT22;9576;47.792;9.628;2024-01-15T02:11:07;0.30;99.90
18888;DHT22;9576;47.792;9.628;2024-01-15T02:14:10;0.20;99.90
18888;DHT22;9576;47.792;9.628;2024-01-15T02:17:12;0.10;99.90
18888;DHT22;9576;47.792;9.628;2024-01-15T02:20:13;0.00;99.90
18888;DHT22;9576;47.792;9.628;2024-01-15T02:23:16;0.00;99.90
18888;DHT22;9576;47.792;9.628;2024-01-15T02:26:18;-0.10;99.90
18888;DHT22;9576;47.792;9.628;2024-01-15T02:29:20;-0.10;99.90
18888;DHT22;9576;47.792;9.628;2024-01-15T02:32:21;-0.10;99.90
18888;DHT22;9576;47.792;9.628;2024-01-15T02:35:23;-0.10;99.90
18888;DHT22;9576;47.792;9.628;2024-01-15T02:38:26;-0.10;99.90
18888;DHT22;9576;47.792;9.628;2024-01-15T02:41:28;-0.10;99.90
18888;DHT22;9576;47.792;9.628;2024-01-15T02:44:30;-0.10;99.90
18888;DHT22;9576;47.792;9.628;2024-01-15T02:47:31;-0.10;99.90
18888;DHT22;9576;47.792;9.628;2024-01-15T02:50:33;-0.20;99.90
18888;DHT22;9576;47.792;9.628;2024-01-15T02:53:36;-0.20;99.90
18888;DHT22;9576;47.792;9.628;2024-01-15T02:56:38;-0.20;99.90
18888;DHT22;9576;47.792;9.628;2024-01-15T02:59:40;-0.10;99.90
18888;DHT22;9576;47.792;9.628;2024-01-15T03:02:44;-0.20;99.90
18888;DHT22;9576;47.792;9.628;2024-01-15T03:05:46;-0.20;99.90
18888;DHT22;9576;47.792;9.628;2024-01-15T03:08:49;-0.10;99.90
18888;DHT22;9576;47.792;9.628;2024-01-15T03:11:50;-0.20;99.90
18888;DHT22;9576;47.792;9.628;2024-01-15T03:14:52;-0.10;99.90
18888;DHT22;9576;47.792;9.628;2024-01-15T03:17:54;-0.10;99.90
18888;DHT22;9576;47.792;9.628;2024-01-15T03:20:55;-0.10;99.90
18888;DHT22;9576;47.792;9.628;2024-01-15T03:23:58;-0.20;99.90
18888;DHT22;9576;47.792;9.628;2024-01-15T03:27:00;-0.20;99.90
18888;DHT22;9576;47.792;9.628;2024-01-15T03:30:02;-0.20;99.90
18888;DHT22;9576;47.792;9.628;2024-01-15T03:33:04;-0.20;99.90
18888;DHT22;9576;47.792;9.628;2024-01-15T03:36:06;-0.20;99.90
18888;DHT22;9576;47.792;9.628;2024-01-15T03:39:09;-0.20;99.90
18888;DHT22;9576;47.792;9.628;2024-01-15T03:42:11;-0.30;99.90
18888;DHT22;9576;47.792;9.628;2024-01-15T03:45:12;-0.30;99.90
18888;DHT22;9576;47.792;9.628;2024-01-15T03:48:14;-0.40;99.90
18888;DHT22;9576;47.792;9.628;2024-01-15T03:51:16;-0.50;99.90
18888;DHT22;9576;47.792;9.628;2024-01-15T03:54:20;-0.50;99.90
18888;DHT22;9576;47.792;9.628;2024-01-15T03:57:21;-0.50;99.90
18888;DHT22;9576;47.792;9.628;2024-01-15T04:00:23;-0.50;99.90
18888;DHT22;9576;47.792;9.628;2024-01-15T04:03:25;-0.70;99.90
18888;DHT22;9576;47.792;9.628;2024-01-15T04:06:26;-0.60;99.90
18888;DHT22;9576;47.792;9.628;2024-01-15T04:09:29;-0.70;99.90
18888;DHT22;9576;47.792;9.628;2024-01-15T04:12:31;-0.70;99.90
18888;DHT22;9576;47.792;9.628;2024-01-15T04:15:33;-0.60;99.90
18888;DHT22;9576;47.792;9.628;2024-01-15T04:18:35;-0.50;99.90
18888;DHT22;9576;47.792;9.628;2024-01-15T04:21:37;-0.30;99.90
18888;DHT22;9576;47.792;9.628;2024-01-15T04:24:40;-0.20;99.90
18888;DHT22;9576;47.792;9.628;2024-01-15T04:27:42;-0.20;99.90
18888;DHT22;9576;47.792;9.628;2024-01-15T04:30:43;-0.20;99.90
18888;DHT22;9576;47.792;9.628;2024-01-15T04:33:45;-0.20;99.90
18888;DHT22;9576;47.792;9.628;2024-01-15T04:36:47;-0.20;99.90
18888;DHT22;9576;47.792;9.628;2024-01-15T04:39:50;-0.20;99.90
18888;DHT22;9576;47.792;9.628;2024-01-15T04:42:53;-0.30;99.90
18888;DHT22;9576;47.792;9.628;2024-01-15T04:45:55;-0.40;99.90
18888;DHT22;9576;47.792;9.628;2024-01-15T04:48:56;-0.40;99.90
18888;DHT22;9576;47.792;9.628;2024-01-15T04:51:58;-0.40;99.90
18888;DHT22;9576;47.792;9.628;2024-01-15T04:55:01;-0.40;99.90
18888;DHT22;9576;47.792;9.628;2024-01-15T04:58:03;-0.30;99.90
18888;DHT22;9576;47.792;9.628;2024-01-15T05:01:05;-0.30;99.90
18888;DHT22;9576;47.792;9.628;2024-01-15T05:04:06;-0.40;99.90
18888;DHT22;9576;47.792;9.628;2024-01-15T05:07:08;-0.40;99.90
18888;DHT22;9576;47.792;9.628;2024-01-15T05:10:11;-0.40;99.90
18888;DHT22;9576;47.792;9.628;2024-01-15T05:13:13;-0.40;99.90
18888;DHT22;9576;47.792;9.628;2024-01-15T05:16:15;-0.40;99.90
18888;DHT22;9576;47.792;9.628;2024-01-15T05:19:18;-0.30;99.90
18888;DHT22;9576;47.792;9.628;2024-01-15T05:22:19;-0.20;99.90
18888;DHT22;9576;47.792;9.628;2024-01-15T05:25:23;-0.20;99.90
18888;DHT22;9576;47.792;9.628;2024-01-15T05:28:24;-0.20;99.90
18888;DHT22;9576;47.792;9.628;2024-01-15T05:31:26;-0.20;99.90
18888;DHT22;9576;47.792;9.628;2024-01-15T05:34:28;-0.10;99.90
18888;DHT22;9576;47.792;9.628;2024-01-15T05:37:30;-0.10;99.90
18888;DHT22;9576;47.792;9.628;2024-01-15T05:40:33;-0.10;99.90
18888;DHT22;9576;47.792;9.628;2024-01-15T05:43:35;-0.10;99.90
18888;DHT22;9576;47.792;9.628;2024-01-15T05:46:36;0.00;99.90
18888;DHT22;9576;47.792;9.628;2024-01-15T05:49:38;0.00;99.90
18888;DHT22;9576;47.792;9.628;2024-01-15T05:52:40;-0.10;99.90
18888;DHT22;9576;47.792;9.628;2024-01-15T05:55:43;-0.10;99.90
18888;DHT22;9576;47.792;9.628;2024-01-15T05:58:45;-0.10;99.90
18888;DHT22;9576;47.792;9.628;2024-01-15T06:01:47;-0.20;99.90
18888;DHT22;9576;47.792;9.628;2024-01-15T06:04:48;-0.10;99.90
18888;DHT22;9576;47.792;9.628;2024-01-15T06:07:51;0.00;99.90
18888;DHT22;9576;47.792;9.628;2024-01-15T06:10:55;0.00;99.90
18888;DHT22;9576;47.792;9.628;2024-01-15T06:13:57;-0.10;99.90
18888;DHT22;9576;47.792;9.628;2024-01-15T06:16:59;-0.10;99.90
18888;DHT22;9576;47.792;9.628;2024-01-15T06:20:00;0.00;99.90
18888;DHT22;9576;47.792;9.628;2024-01-15T06:23:03;0.00;99.90
18888;DHT22;9576;47.792;9.628;2024-01-15T06:26:06;-0.10;99.90
18888;DHT22;9576;47.792;9.628;2024-01-15T06:29:08;-0.10;99.90
18888;DHT22;9576;47.792;9.628;2024-01-15T06:32:10;-0.20;99.90
18888;DHT22;9576;47.792;9.628;2024-01-15T06:35:11;-0.10;99.90
18888;DHT22;9576;47.792;9.628;2024-01-15T06:38:13;0.00;99.90
18888;DHT22;9576;47.792;9.628;2024-01-15T06:41:16;0.10;99.90
18888;DHT22;9576;47.792;9.628;2024-01-15T06:44:18;0.10;99.90
18888;DHT22;9576;47.792;9.628;2024-01-15T06:47:21;0.10;99.90
18888;DHT22;9576;47.792;9.628;2024-01-15T06:50:23;0.00;99.90
18888;DHT22;9576;47.792;9.628;2024-01-15T06:53:25;0.00;99.90
18888;DHT22;9576;47.792;9.628;2024-01-15T06:56:28;-0.10;99.90
18888;DHT22;9576;47.792;9.628;2024-01-15T06:59:29;-0.10;99.90
18888;DHT22;9576;47.792;9.628;2024-01-15T07:02:31;0.00;99.90
18888;DHT22;9576;47.792;9.628;2024-01-15T07:05:33;0.10;99.90
18888;DHT22;9576;47.792;9.628;2024-01-15T07:08:35;0.10;99.90
18888;DHT22;9576;47.792;9.628;2024-01-15T07:11:38;0.10;99.90
18888;DHT22;9576;47.792;9.628;2024-01-15T07:14:39;0.20;99.90
18888;DHT22;9576;47.792;9.628;2024-01-15T07:17:41;0.30;99.90
18888;DHT22;9576;47.792;9.628;2024-01-15T07:20:43;0.30;99.90
18888;DHT22;9576;47.792;9.628;2024-01-15T07:23:44;0.30;99.90
18888;DHT22;9576;47.792;9.628;2024-01-15T07:26:48;0.30;99.90
18888;DHT22;9576;47.792;9.628;2024-01-15T07:29:49;0.30;99.90
18888;DHT22;9576;47.792;9.628;2024-01-15T07:32:51;0.30;99.90
18888;DHT22;9576;47.792;9.628;2024-01-15T07:35:53;0.40;99.90
18888;DHT22;9576;47.792;9.628;2024-01-15T07:38:55;0.40;99.90
18888;DHT22;9576;47.792;9.628;2024-01-15T07:41:58;0.40;99.90
18888;DHT22;9576;47.792;9.628;2024-01-15T07:44:59;0.40;99.90
18888;DHT22;9576;47.792;9.628;2024-01-15T07:48:01;0.30;99.90
18888;DHT22;9576;47.792;9.628;2024-01-15T07:51:04;0.30;99.90
18888;DHT22;9576;47.792;9.628;2024-01-15T07:54:06;0.20;99.90
18888;DHT22;9576;47.792;9.628;2024-01-15T07:57:09;0.20;99.90
18888;DHT22;9576;47.792;9.628;2024-01-15T08:00:11;0.20;99.90
18888;DHT22;9576;47.792;9.628;2024-01-15T08:03:12;0.20;99.90
18888;DHT22;9576;47.792;9.628;2024-01-15T08:06:15;0.20;99.90
18888;DHT22;9576;47.792;9.628;2024-01-15T08:09:17;0.20;99.90
18888;DHT22;9576;47.792;9.628;2024-01-15T08:12:20;0.20;99.90
18888;DHT22;9576;47.792;9.628;2024-01-15T08:15:22;0.30;99.90
18888;DHT22;9576;47.792;9.628;2024-01-15T08:18:24;0.30;99.90
18888;DHT22;9576;47.792;9.628;2024-01-15T08:21:26;0.30;99.90
18888;DHT22;9576;47.792;9.628;2024-01-15T08:24:30;0.30;99.90
18888;DHT22;9576;47.792;9.628;2024-01-15T08:27:33;0.30;99.90
18888;DHT22;9576;47.792;9.628;2024-01-15T08:30:35;0.30;99.90
18888;DHT22;9576;47.792;9.628;2024-01-15T08:33:36;0.30;99.90
18888;DHT22;9576;47.792;9.628;2024-01-15T08:36:38;0.40;99.90
18888;DHT22;9576;47.792;9.628;2024-01-15T08:39:41;0.40;99.90
18888;DHT22;9576;47.792;9.628;2024-01-15T08:42:44;0.50;99.90
18888;DHT22;9576;47.792;9.628;2024-01-15T08:45:46;0.50;99.90
18888;DHT22;9576;47.792;9.628;2024-01-15T08:48:48;0.50;99.90
18888;DHT22;9576;47.792;9.628;2024-01-15T08:51:50;0.50;99.90
18888;DHT22;9576;47.792;9.628;2024-01-15T08:54:52;0.50;99.90
18888;DHT22;9576;47.792;9.628;2024-01-15T08:57:55;0.50;99.90
18888;DHT22;9576;47.792;9.628;2024-01-15T09:00:57;0.40;99.90
18888;DHT22;9576;47.792;9.628;2024-01-15T09:03:59;0.40;99.90
18888;DHT22;9576;47.792;9.628;2024-01-15T09:07:00;0.40;99.90
18888;DHT22;9576;47.792;9.628;2024-01-15T09:10:02;0.40;99.90
18888;DHT22;9576;47.792;9.628;2024-01-15T09:13:05;0.50;99.90
18888;DHT22;9576;47.792;9.628;2024-01-15T09:16:07;0.50;99.90
18888;DHT22;9576;47.792;9.628;2024-01-15T09:19:09;0.50;99.90
18888;DHT22;9576;47.792;9.628;2024-01-15T09:22:11;0.50;99.90
18888;DHT22;9576;47.792;9.628;2024-01-15T09:25:14;0.50;99.90
18888;DHT22;9576;47.792;9.628;2024-01-15T09:28:17;0.60;99.90
18888;DHT22;9576;47.792;9.628;2024-01-15T09:31:19;0.60;99.90
18888;DHT22;9576;47.792;9.628;2024-01-15T09:34:21;0.60;99.90
18888;DHT22;9576;47.792;9.628;2024-01-15T09:37:23;0.70;99.90
18888;DHT22;9576;47.792;9.628;2024-01-15T09:40:25;0.70;99.90
18888;DHT22;9576;47.792;9.628;2024-01-15T09:43:33;0.70;99.90
18888;DHT22;9576;47.792;9.628;2024-01-15T09:46:35;0.70;99.90
18888;DHT22;9576;47.792;9.628;2024-01-15T09:49:36;0.60;99.90
18888;DHT22;9576;47.792;9.628;2024-01-15T09:52:40;0.50;99.90
18888;DHT22;9576;47.792;9.628;2024-01-15T09:55:42;0.50;99.90
18888;DHT22;9576;47.792;9.628;2024-01-15T09:58:45;0.50;99.90
18888;DHT22;9576;47.792;9.628;2024-01-15T10:01:47;0.50;99.90
18888;DHT22;9576;47.792;9.628;2024-01-15T10:04:51;0.50;99.90
18888;DHT22;9576;47.792;9.628;2024-01-15T10:07:53;0.60;99.90
18888;DHT22;9576;47.792;9.628;2024-01-15T10:10:55;0.70;99.90
18888;DHT22;9576;47.792;9.628;2024-01-15T10:13:58;0.70;99.90
18888;DHT22;9576;47.792;9.628;2024-01-15T10:16:59;0.80;99.90
18888;DHT22;9576;47.792;9.628;2024-01-15T10:20:01;0.80;99.90
18888;DHT22;9576;47.792;9.628;2024-01-15T10:23:04;0.90;99.90
18888;DHT22;9576;47.792;9.628;2024-01-15T10:26:06;0.90;99.90
18888;DHT22;9576;47.792;9.628;2024-01-15T10:29:09;0.90;99.90
18888;DHT22;9576;47.792;9.628;2024-01-15T10:32:11;0.80;99.90
18888;DHT22;9576;47.792;9.628;2024-01-15T10:35:12;0.80;99.90
18888;DHT22;9576;47.792;9.628;2024-01-15T10:38:14;0.80;99.90
18888;DHT22;9576;47.792;9.628;2024-01-15T10:41:18;0.80;99.90
18888;DHT22;9576;47.792;9.628;2024-01-15T10:44:21;0.90;99.90
18888;DHT22;9576;47.792;9.628;2024-01-15T10:47:23;0.90;99.90
18888;DHT22;9576;47.792;9.628;2024-01-15T10:50:24;0.90;99.90
18888;DHT22;9576;47.792;9.628;2024-01-15T10:53:26;1.00;99.90
18888;DHT22;9576;47.792;9.628;2024-01-15T10:56:28;1.00;99.90
18888;DHT22;9576;47.792;9.628;2024-01-15T10:59:32;1.10;99.90
18888;DHT22;9576;47.792;9.628;2024-01-15T11:02:34;0.90;99.90
18888;DHT22;9576;47.792;9.628;2024-01-15T11:05:37;1.00;99.90
18888;DHT22;9576;47.792;9.628;2024-01-15T11:08:39;1.00;99.90
18888;DHT22;9576;47.792;9.628;2024-01-15T11:11:43;1.00;99.90
18888;DHT22;9576;47.792;9.628;2024-01-15T11:14:47;1.00;99.90
18888;DHT22;9576;47.792;9.628;2024-01-15T11:17:58;0.90;99.90
18888;DHT22;9576;47.792;9.628;2024-01-15T11:21:19;0.90;99.90
18888;DHT22;9576;47.792;9.628;2024-01-15T11:24:37;0.80;99.90
18888;DHT22;9576;47.792;9.628;2024-01-15T11:27:40;0.70;99.90
18888;DHT22;9576;47.792;9.628;2024-01-15T11:30:43;0.60;99.90
18888;DHT22;9576;47.792;9.628;2024-01-15T11:33:47;0.60;99.90
18888;DHT22;9576;47.792;9.628;2024-01-15T11:37:00;0.50;99.90
18888;DHT22;9576;47.792;9.628;2024-01-15T11:40:02;0.50;99.90
18888;DHT22;9576;47.792;9.628;2024-01-15T11:43:05;0.80;99.90
18888;DHT22;9576;47.792;9.628;2024-01-15T11:46:10;1.10;99.90
18888;DHT22;9576;47.792;9.628;2024-01-15T11:49:12;1.40;99.90
18888;DHT22;9576;47.792;9.628;2024-01-15T11:52:18;1.60;99.90
18888;DHT22;9576;47.792;9.628;2024-01-15T11:55:22;1.90;99.90
18888;DHT22;9576;47.792;9.628;2024-01-15T11:58:24;2.00;99.90
18888;DHT22;9576;47.792;9.628;2024-01-15T12:01:27;2.10;99.90
18888;DHT22;9576;47.792;9.628;2024-01-15T12:04:28;2.10;99.90
18888;DHT22;9576;47.792;9.628;2024-01-15T12:07:30;2.20;99.90
18888;DHT22;9576;47.792;9.628;2024-01-15T12:10:32;2.10;99.90
18888;DHT22;9576;47.792;9.628;2024-01-15T12:13:33;2.10;99.90
18888;DHT22;9576;47.792;9.628;2024-01-15T12:16:37;2.00;99.90
18888;DHT22;9576;47.792;9.628;2024-01-15T12:19:38;2.00;99.90
18888;DHT22;9576;47.792;9.628;2024-01-15T12:22:40;1.90;99.90
18888;DHT22;9576;47.792;9.628;2024-01-15T12:25:42;1.90;99.90
18888;DHT22;9576;47.792;9.628;2024-01-15T12:28:44;1.90;99.90
18888;DHT22;9576;47.792;9.628;2024-01-15T12:31:47;1.90;99.90
18888;DHT22;9576;47.792;9.628;2024-01-15T12:34:49;1.90;99.90
18888;DHT22;9576;47.792;9.628;2024-01-15T12:37:51;1.90;99.90
18888;DHT22;9576;47.792;9.628;2024-01-15T12:40:53;1.80;99.90
18888;DHT22;9576;47.792;9.628;2024-01-15T12:43:55;1.70;99.90
18888;DHT22;9576;47.792;9.628;2024-01-15T12:46:58;1.60;99.90
18888;DHT22;9576;47.792;9.628;2024-01-15T12:50:00;1.60;99.90
18888;DHT22;9576;47.792;9.628;2024-01-15T12:53:01;1.70;99.90
18888;DHT22;9576;47.792;9.628;2024-01-15T12:56:03;1.90;99.90
18888;DHT22;9576;47.792;9.628;2024-01-15T12:59:05;2.10;99.90
18888;DHT22;9576;47.792;9.628;2024-01-15T13:02:08;2.20;99.90
18888;DHT22;9576;47.792;9.628;2024-01-15T13:05:10;2.20;99.90
18888;DHT22;9576;47.792;9.628;2024-01-15T13:08:12;2.30;99.90
18888;DHT22;9576;47.792;9.628;2024-01-15T13:11:14;2.30;99.90
18888;DHT22;9576;47.792;9.628;2024-01-15T13:14:15;2.20;99.90
18888;DHT22;9576;47.792;9.628;2024-01-15T13:17:18;2.10;99.90
18888;DHT22;9576;47.792;9.628;2024-01-15T13:20:21;2.00;99.90
18888;DHT22;9576;47.792;9.628;2024-01-15T13:23:22;2.00;99.90
18888;DHT22;9576;47.792;9.628;2024-01-15T13:26:24;2.00;99.90
18888;DHT22;9576;47.792;9.628;2024-01-15T13:29:26;2.20;99.90
18888;DHT22;9576;47.792;9.628;2024-01-15T13:32:29;2.40;99.90
18888;DHT22;9576;47.792;9.628;2024-01-15T13:35:31;3.10;99.90
18888;DHT22;9576;47.792;9.628;2024-01-15T13:38:33;3.70;99.90
18888;DHT22;9576;47.792;9.628;2024-01-15T13:41:36;4.50;99.90
18888;DHT22;9576;47.792;9.628;2024-01-15T13:44:41;5.40;99.90
18888;DHT22;9576;47.792;9.628;2024-01-15T13:47:44;5.60;99.90
18888;DHT22;9576;47.792;9.628;2024-01-15T13:50:46;5.00;99.90
18888;DHT22;9576;47.792;9.628;2024-01-15T13:53:47;4.60;99.90
18888;DHT22;9576;47.792;9.628;2024-01-15T13:56:49;4.40;99.90
18888;DHT22;9576;47.792;9.628;2024-01-15T13:59:51;4.10;99.90
18888;DHT22;9576;47.792;9.628;2024-01-15T14:02:54;3.70;99.90
18888;DHT22;9576;47.792;9.628;2024-01-15T14:05:56;3.40;99.90
18888;DHT22;9576;47.792;9.628;2024-01-15T14:08:57;3.00;99.90
18888;DHT22;9576;47.792;9.628;2024-01-15T14:11:59;2.80;99.90
18888;DHT22;9576;47.792;9.628;2024-01-15T14:15:01;2.50;99.90
18888;DHT22;9576;47.792;9.628;2024-01-15T14:18:04;2.40;99.90
18888;DHT22;9576;47.792;9.628;2024-01-15T14:21:06;2.30;99.90
18888;DHT22;9576;47.792;9.628;2024-01-15T14:24:08;2.30;99.90
18888;DHT22;9576;47.792;9.628;2024-01-15T14:27:09;2.60;99.90
18888;DHT22;9576;47.792;9.628;2024-01-15T14:30:12;2.70;99.90
18888;DHT22;9576;47.792;9.628;2024-01-15T14:33:17;2.70;99.90
18888;DHT22;9576;47.792;9.628;2024-01-15T14:36:19;2.50;99.90
18888;DHT22;9576;47.792;9.628;2024-01-15T14:39:21;2.30;99.90
18888;DHT22;9576;47.792;9.628;2024-01-15T14:42:22;2.20;99.90
18888;DHT22;9576;47.792;9.628;2024-01-15T14:45:25;2.10;99.90
18888;DHT22;9576;47.792;9.628;2024-01-15T14:48:29;2.00;99.90
18888;DHT22;9576;47.792;9.628;2024-01-15T14:51:30;2.00;99.90
18888;DHT22;9576;47.792;9.628;2024-01-15T14:54:32;2.00;99.90
18888;DHT22;9576;47.792;9.628;2024-01-15T14:57:34;2.00;99.90
18888;DHT22;9576;47.792;9.628;2024-01-15T15:00:35;1.90;99.90
18888;DHT22;9576;47.792;9.628;2024-01-15T15:03:38;1.90;99.90
18888;DHT22;9576;47.792;9.628;2024-01-15T15:06:40;1.90;99.90
18888;DHT22;9576;47.792;9.628;2024-01-15T15:09:42;1.90;99.90
18888;DHT22;9576;47.792;9.628;2024-01-15T15:12:44;1.80;99.90
18888;DHT22;9576;47.792;9.628;2024-01-15T15:15:45;1.80;99.90
18888;DHT22;9576;47.792;9.628;2024-01-15T15:18:48;1.80;99.90
18888;DHT22;9576;47.792;9.628;2024-01-15T15:21:50;1.80;99.90
18888;DHT22;9576;47.792;9.628;2024-01-15T15:24:52;1.80;99.90
18888;DHT22;9576;47.792;9.628;2024-01-15T15:27:53;1.80;99.90
18888;DHT22;9576;47.792;9.628;2024-01-15T15:30:55;1.70;99.90
18888;DHT22;9576;47.792;9.628;2024-01-15T15:33:58;1.70;99.90
18888;DHT22;9576;47.792;9.628;2024-01-15T15:37:00;1.70;99.90
18888;DHT22;9576;47.792;9.628;2024-01-15T15:40:02;1.70;99.90
18888;DHT22;9576;47.792;9.628;2024-01-15T15:43:08;1.80;99.90
18888;DHT22;9576;47.792;9.628;2024-01-15T15:46:10;1.80;99.90
18888;DHT22;9576;47.792;9.628;2024-01-15T15:49:13;1.80;99.90
18888;DHT22;9576;47.792;9.628;2024-01-15T15:52:15;1.80;99.90
18888;DHT22;9576;47.792;9.628;2024-01-15T15:55:16;1.80;99.90
18888;DHT22;9576;47.792;9.628;2024-01-15T15:58:18;1.80;99.90
18888;DHT22;9576;47.792;9.628;2024-01-15T16:01:20;1.80;99.90
18888;DHT22;9576;47.792;9.628;2024-01-15T16:04:23;1.80;99.90
18888;DHT22;9576;47.792;9.628;2024-01-15T16:07:25;1.80;99.90
18888;DHT22;9576;47.792;9.628;2024-01-15T16:10:29;1.80;99.90
18888;DHT22;9576;47.792;9.628;2024-01-15T16:13:30;1.70;99.90
18888;DHT22;9576;47.792;9.628;2024-01-15T16:16:32;1.70;99.90
18888;DHT22;9576;47.792;9.628;2024-01-15T16:19:35;1.70;99.90
18888;DHT22;9576;47.792;9.628;2024-01-15T16:22:37;1.70;99.90
18888;DHT22;9576;47.792;9.628;2024-01-15T16:25:39;1.70;99.90
18888;DHT22;9576;47.792;9.628;2024-01-15T16:28:40;1.70;99.90
18888;DHT22;9576;47.792;9.628;2024-01-15T16:31:42;1.60;99.90
18888;DHT22;9576;47.792;9.628;2024-01-15T16:34:45;1.60;99.90
18888;DHT22;9576;47.792;9.628;2024-01-15T16:37:47;1.60;99.90
18888;DHT22;9576;47.792;9.628;2024-01-15T16:40:48;1.50;99.90
18888;DHT22;9576;47.792;9.628;2024-01-15T16:43:50;1.50;99.90
18888;DHT22;9576;47.792;9.628;2024-01-15T16:46:52;1.40;99.90
18888;DHT22;9576;47.792;9.628;2024-01-15T16:49:55;1.40;99.90
18888;DHT22;9576;47.792;9.628;2024-01-15T16:52:57;1.40;99.90
18888;DHT22;9576;47.792;9.628;2024-01-15T16:55:58;1.40;99.90
18888;DHT22;9576;47.792;9.628;2024-01-15T16:59:00;1.30;99.90
18888;DHT22;9576;47.792;9.628;2024-01-15T17:02:02;1.30;99.90
18888;DHT22;9576;47.792;9.628;2024-01-15T17:05:05;1.30;99.90
18888;DHT22;9576;47.792;9.628;2024-01-15T17:08:07;1.20;99.90
18888;DHT22;9576;47.792;9.628;2024-01-15T17:11:09;1.20;99.90
18888;DHT22;9576;47.792;9.628;2024-01-15T17:14:11;1.10;99.90
18888;DHT22;9576;47.792;9.628;2024-01-15T17:17:12;1.10;99.90
18888;DHT22;9576;47.792;9.628;2024-01-15T17:20:17;1.10;99.90
18888;DHT22;9576;47.792;9.628;2024-01-15T17:23:19;1.10;99.90
18888;DHT22;9576;47.792;9.628;2024-01-15T17:26:21;1.00;99.90
18888;DHT22;9576;47.792;9.628;2024-01-15T17:29:22;1.00;99.90
18888;DHT22;9576;47.792;9.628;2024-01-15T17:32:24;1.00;99.90
18888;DHT22;9576;47.792;9.628;2024-01-15T17:35:27;1.00;99.90
18888;DHT22;9576;47.792;9.628;2024-01-15T17:38:29;0.90;99.90
18888;DHT22;9576;47.792;9.628;2024-01-15T17:41:31;0.80;99.90
18888;DHT22;9576;47.792;9.628;2024-01-15T17:44:33;0.80;99.90
18888;DHT22;9576;47.792;9.628;2024-01-15T17:47:34;0.80;99.90
18888;DHT22;9576;47.792;9.628;2024-01-15T17:50:37;0.70;99.90
18888;DHT22;9576;47.792;9.628;2024-01-15T17:53:39;0.70;99.90
18888;DHT22;9576;47.792;9.628;2024-01-15T17:56:41;0.60;99.90
18888;DHT22;9576;47.792;9.628;2024-01-15T17:59:43;0.60;99.90
18888;DHT22;9576;47.792;9.628;2024-01-15T18:02:45;0.60;99.90
18888;DHT22;9576;47.792;9.628;2024-01-15T18:05:48;0.50;99.90
18888;DHT22;9576;47.792;9.628;2024-01-15T18:08:50;0.50;99.90
18888;DHT22;9576;47.792;9.628;2024-01-15T18:11:51;0.40;99.90
18888;DHT22;9576;47.792;9.628;2024-01-15T18:14:56;0.40;99.90
18888;DHT22;9576;47.792;9.628;2024-01-15T18:17:58;0.40;99.90
18888;DHT22;9576;47.792;9.628;2024-01-15T18:21:01;0.30;99.90
18888;DHT22;9576;47.792;9.628;2024-01-15T18:24:04;0.30;99.90
18888;DHT22;9576;47.792;9.628;2024-01-15T18:27:05;0.30;99.90
18888;DHT22;9576;47.792;9.628;2024-01-15T18:30:11;0.30;99.90
18888;DHT22;9576;47.792;9.628;2024-01-15T18:33:13;0.30;99.90
18888;DHT22;9576;47.792;9.628;2024-01-15T18:36:16;0.30;99.90
18888;DHT22;9576;47.792;9.628;2024-01-15T18:39:19;0.30;99.90
18888;DHT22;9576;47.792;9.628;2024-01-15T18:42:21;0.30;99.90
18888;DHT22;9576;47.792;9.628;2024-01-15T18:45:22;0.30;99.90
18888;DHT22;9576;47.792;9.628;2024-01-15T18:48:24;0.30;99.90
18888;DHT22;9576;47.792;9.628;2024-01-15T18:51:27;0.40;99.90
18888;DHT22;9576;47.792;9.628;2024-01-15T18:54:29;0.40;99.90
18888;DHT22;9576;47.792;9.628;2024-01-15T18:57:30;0.40;99.90
18888;DHT22;9576;47.792;9.628;2024-01-15T19:00:32;0.40;99.90
18888;DHT22;9576;47.792;9.628;2024-01-15T19:03:34;0.40;99.90
18888;DHT22;9576;47.792;9.628;2024-01-15T19:06:37;0.40;99.90
18888;DHT22;9576;47.792;9.628;2024-01-15T19:09:38;0.30;99.90
18888;DHT22;9576;47.792;9.628;2024-01-15T19:12:41;0.30;99.90
18888;DHT22;9576;47.792;9.628;2024-01-15T19:15:42;0.30;99.90
18888;DHT22;9576;47.792;9.628;2024-01-15T19:18:44;0.20;99.90
18888;DHT22;9576;47.792;9.628;2024-01-15T19:21:47;0.10;99.90
18888;DHT22;9576;47.792;9.628;2024-01-15T19:24:49;0.00;99.90
18888;DHT22;9576;47.792;9.628;2024-01-15T19:27:50;0.00;99.90
18888;DHT22;9576;47.792;9.628;2024-01-15T19:30:52;-0.20;99.90
18888;DHT22;9576;47.792;9.628;2024-01-15T19:33:54;-0.20;99.90
18888;DHT22;9576;47.792;9.628;2024-01-15T19:36:57;-0.30;99.90
18888;DHT22;9576;47.792;9.628;2024-01-15T19:39:59;-0.30;99.90
18888;DHT22;9576;47.792;9.628;2024-01-15T19:43:01;-0.30;99.90